Latest Weather Observations for Bridgetown

IDW60801

Issued at 5:02 pm WST Saturday 6 February 2016 (issued every 30 minutes, with the page automatically refreshed every 10 minutes)

About weather observations | Map of weather stations | Latest weather observations for WA | Other Formats
Station Details ID: 009617 Name: BRIDGETOWN Lat: -33.95 Lon: 116.13 Height: 178.66 m
Data from the previous 72 hours. | See also: Recent months at Bridgetown
Date/Time
WST
Temp
°C
App
Temp
°C
Dew
Point
Rel
Hum
%
Delta-T
°C
Wind Press
QNH
hPa
Press
MSL
hPa
Rain
since 9 am
mm
Dir
 
Spd
km/h
Gust
km/h
Spd
kts
Gust
kts
06/05:00pm 28.5 26.6 15.1 44 8.2 SSE 19 28 10 15 1015.6 1014.9 0.0
06/04:30pm 29.3 28.2 14.3 40 9.1 SSE 13 24 7 13 1015.6 1014.9 0.0
06/04:00pm 29.6 28.0 13.8 38 9.5 SSE 15 26 8 14 1015.7 1015.0 0.0
06/03:30pm 30.1 29.8 13.4 36 10.0 SE 7 20 4 11 1015.7 1015.0 0.0
06/03:00pm 30.2 30.5 13.5 36 10.1 S 4 11 2 6 1016.0 1015.3 0.0
06/02:30pm 29.6 29.1 13.8 38 9.5 SSE 9 19 5 10 1016.2 1015.5 0.0
06/02:00pm 28.7 28.1 13.4 39 9.1 SE 9 15 5 8 1016.5 1015.8 0.0
06/01:30pm 27.9 27.8 13.8 42 8.5 S 7 15 4 8 1016.8 1016.1 0.0
06/01:00pm 27.7 27.9 14.3 43 8.1 SE 6 9 3 5 1017.0 1016.3 0.0
06/12:30pm 26.9 26.2 14.3 46 7.6 ESE 11 17 6 9 1017.4 1016.7 0.0
06/12:00pm 25.5 25.1 14.0 49 6.8 SE 9 15 5 8 1017.8 1017.1 0.0
06/11:30am 25.2 25.0 14.6 51 6.4 SE 9 19 5 10 1017.9 1017.2 0.0
06/11:00am 24.1 22.8 13.6 52 6.2 SSE 13 22 7 12 1018.3 1017.6 0.0
06/10:30am 23.2 21.7 14.2 57 5.3 SSE 15 28 8 15 1018.6 1017.9 0.0
06/10:00am 22.5 21.2 13.8 58 5.1 ESE 13 19 7 10 1018.7 1018.0 0.0
06/09:30am 21.1 19.4 13.5 62 4.4 SE 15 22 8 12 1018.7 1018.0 0.0
06/09:00am 20.2 18.6 13.9 67 3.7 SSE 15 26 8 14 1018.7 1018.0 0.0
06/08:30am 18.7 16.6 13.6 72 2.9 SSE 17 22 9 12 1018.7 1018.0 0.0
06/08:00am 19.4 17.7 13.6 69 3.3 SE 15 24 8 13 1018.6 1017.9 0.0
06/07:30am 18.8 17.6 13.9 73 2.8 SSE 13 24 7 13 1018.5 1017.8 0.0
06/07:00am 17.9 17.5 14.0 78 2.2 SSE 9 13 5 7 1018.5 1017.8 0.0
06/06:30am 16.6 16.1 13.9 84 1.5 SSE 9 15 5 8 1017.9 1017.2 0.0
06/06:00am 16.0 15.5 13.8 87 1.2 S 9 13 5 7 1017.6 1016.9 0.0
06/05:30am 15.9 15.7 13.7 87 1.2 SSE 7 15 4 8 1017.1 1016.4 0.0
06/05:00am 16.1 16.0 13.8 86 1.3 SSE 7 11 4 6 1016.8 1016.1 0.0
06/04:30am 16.3 16.2 13.8 85 1.4 SSE 7 11 4 6 1016.7 1016.0 0.0
06/04:00am 16.6 16.1 13.7 83 1.6 SSE 9 15 5 8 1016.7 1016.0 0.0
06/03:30am 16.9 16.1 14.0 83 1.7 SSE 11 17 6 9 1016.8 1016.1 0.0
06/03:00am 16.6 16.6 14.1 85 1.4 SSE 7 13 4 7 1017.1 1016.4 0.0
06/02:30am 16.3 16.2 14.0 86 1.3 SSE 7 11 4 6 1017.2 1016.5 0.0
06/02:00am 16.4 16.0 14.1 86 1.3 SSE 9 17 5 9 1017.3 1016.6 0.0
06/01:30am 16.3 15.9 14.0 86 1.3 S 9 15 5 8 1017.2 1016.5 0.0
06/01:00am 16.6 15.9 13.1 80 2.0 S 9 15 5 8 1017.2 1016.5 0.0
06/12:30am 17.0 16.1 12.7 76 2.4 S 9 11 5 6 1017.2 1016.5 0.0
06/12:00am 17.1 16.6 12.2 73 2.7 S 6 9 3 5 1017.3 1016.6 0.0
 
Date/Time
WST
Temp
°C
App
Temp
°C
Dew
Point
Rel
Hum
%
Delta-T
°C
Wind Press
QNH
hPa
Press
MSL
hPa
Rain
since 9 am
mm
Dir
 
Spd
km/h
Gust
km/h
Spd
kts
Gust
kts
05/11:30pm 18.0 18.0 12.5 70 3.1 SSW 4 6 2 3 1017.1 1016.4 0.0
05/11:00pm 18.6 18.1 12.6 68 3.4 SSW 7 7 4 4 1017.2 1016.5 0.0
05/10:30pm 19.2 18.7 12.5 65 3.8 S 7 13 4 7 1017.5 1016.8 0.0
05/10:00pm 19.8 19.2 12.3 62 4.2 S 7 9 4 5 1017.4 1016.7 0.0
05/09:30pm 20.6 19.6 12.3 59 4.7 S 9 15 5 8 1017.3 1016.6 0.0
05/09:00pm 21.2 19.8 12.3 57 5.0 SSE 11 19 6 10 1017.1 1016.4 0.0
05/08:30pm 22.2 20.9 12.5 54 5.6 SSE 11 20 6 11 1016.7 1016.0 0.0
05/08:00pm 23.5 22.6 12.5 50 6.3 S 9 13 5 7 1016.1 1015.4 0.0
05/07:30pm 24.8 23.0 10.7 41 7.9 S 11 20 6 11 1015.6 1014.9 0.0
05/07:00pm 26.0 24.0 10.2 37 8.9 S 11 17 6 9 1015.2 1014.5 0.0
05/06:30pm 27.1 25.3 10.8 36 9.3 S 11 19 6 10 1014.8 1014.1 0.0
05/06:00pm 28.4 27.0 11.0 34 10.0 SSW 9 19 5 10 1014.3 1013.6 0.0
05/05:30pm 28.9 26.6 10.6 32 10.5 S 13 19 7 10 1014.1 1013.4 0.0
05/05:00pm 29.1 26.6 11.2 33 10.3 S 15 20 8 11 1014.1 1013.4 0.0
05/04:30pm 29.5 26.2 11.5 33 10.5 S 20 33 11 18 1014.0 1013.3 0.0
05/04:00pm 31.0 28.8 13.3 34 10.7 S 17 30 9 16 1013.7 1013.0 0.0
05/03:30pm 32.2 30.4 13.4 32 11.4 SW 15 24 8 13 1013.4 1012.7 0.0
05/03:00pm 34.0 32.7 9.3 22 14.2 SSW 6 13 3 7 1013.4 1012.7 0.0
05/02:30pm 33.1 31.1 8.5 22 13.9 WNW 9 20 5 11 1013.7 1013.0 0.0
05/02:00pm 32.8 30.7 8.3 22 13.8 NW 9 20 5 11 1014.1 1013.4 0.0
05/01:30pm 32.9 30.7 7.7 21 14.0 WNW 9 20 5 11 1014.4 1013.7 0.0
05/01:00pm 32.4 30.0 8.6 23 13.4 NW 11 24 6 13 1014.6 1013.9 0.0
05/12:30pm 31.6 28.3 8.0 23 13.1 NW 15 28 8 15 1015.1 1014.4 0.0
05/12:00pm 31.3 28.6 8.9 25 12.6 NNW 13 28 7 15 1015.3 1014.6 0.0
05/11:30am 31.4 28.9 8.4 24 12.9 WNW 11 19 6 10 1015.5 1014.8 0.0
05/11:00am 30.9 28.8 9.7 27 12.1 NW 11 24 6 13 1015.7 1015.0 0.0
05/10:30am 30.8 28.1 10.2 28 11.8 NW 15 24 8 13 1015.8 1015.1 0.0
05/10:00am 29.4 27.4 10.0 30 11.0 NNW 11 19 6 10 1016.0 1015.3 0.0
05/09:30am 28.1 26.0 9.9 32 10.3 NNW 11 19 6 10 1016.1 1015.4 0.0
05/09:00am 26.7 24.8 10.4 36 9.2 NNW 11 17 6 9 1016.1 1015.4 0.0
05/08:30am 25.4 24.9 11.9 43 7.8 NNW 6 9 3 5 1016.4 1015.7 0.0
05/08:00am 23.3 23.7 12.6 51 6.2 SE 2 4 1 2 1016.7 1016.0 0.0
05/07:30am 19.4 20.6 13.8 70 3.2 CALM 0 0 0 0 1016.7 1016.0 0.0
05/07:00am 15.7 16.6 13.0 84 1.5 CALM 0 0 0 0 1016.6 1015.9 0.0
05/06:30am 13.3 13.9 12.0 92 0.7 CALM 0 0 0 0 1016.4 1015.7 0.0
05/06:00am 11.9 12.2 11.0 94 0.5 CALM 0 0 0 0 1016.3 1015.6 0.0
05/05:30am 12.0 12.4 11.1 94 0.5 CALM 0 0 0 0 1015.9 1015.2 0.0
05/05:00am 12.2 12.6 11.1 93 0.6 CALM 0 0 0 0 1015.7 1015.0 0.0
05/04:30am 12.4 12.8 11.3 93 0.6 CALM 0 0 0 0 1015.6 1014.9 0.0
05/04:00am 12.4 12.8 11.1 92 0.7 CALM 0 0 0 0 1015.5 1014.8 0.0
05/03:30am 13.0 13.5 11.7 92 0.7 CALM 0 0 0 0 1015.5 1014.8 0.0
05/03:00am 13.1 13.6 11.7 91 0.8 CALM 0 0 0 0 1015.6 1014.9 0.0
05/02:30am 13.3 13.8 11.7 90 0.9 CALM 0 0 0 0 1015.5 1014.8 0.0
05/02:00am 13.5 14.0 11.7 89 1.0 CALM 0 0 0 0 1015.9 1015.2 0.0
05/01:30am 13.7 14.3 11.8 88 1.0 CALM 0 0 0 0 1016.2 1015.5 0.0
05/01:00am 14.3 14.9 12.0 86 1.3 CALM 0 0 0 0 1016.4 1015.7 0.0
05/12:30am 14.7 15.3 12.0 84 1.5 CALM 0 0 0 0 1016.7 1016.0 0.0
05/12:00am 15.2 15.9 12.2 82 1.6 CALM 0 0 0 0 1016.9 1016.2 0.0
 
Date/Time
WST
Temp
°C
App
Temp
°C
Dew
Point
Rel
Hum
%
Delta-T
°C
Wind Press
QNH
hPa
Press
MSL
hPa
Rain
since 9 am
mm
Dir
 
Spd
km/h
Gust
km/h
Spd
kts
Gust
kts
04/11:30pm 16.1 16.8 12.3 78 2.1 CALM 0 0 0 0 1017.0 1016.3 0.0
04/11:00pm 16.6 17.3 12.2 75 2.4 CALM 0 0 0 0 1017.3 1016.6 0.0
04/10:30pm 17.9 18.7 12.4 70 3.1 CALM 0 0 0 0 1017.1 1016.4 0.0
04/10:00pm 18.8 19.5 12.3 66 3.6 CALM 0 0 0 0 1017.1 1016.4 0.0
04/09:30pm 20.5 21.2 12.2 59 4.7 CALM 0 6 0 3 1017.1 1016.4 0.0
04/09:00pm 22.6 22.1 12.0 51 6.0 SSW 6 7 3 4 1017.2 1016.5 0.0
04/08:30pm 24.3 23.7 11.6 45 7.2 SSW 6 9 3 5 1017.1 1016.4 0.0
04/08:00pm 25.2 24.5 11.4 42 7.9 SW 6 11 3 6 1016.9 1016.2 0.0
04/07:30pm 26.9 24.9 10.2 35 9.4 SW 11 22 6 12 1016.7 1016.0 0.0
04/07:00pm 28.1 27.2 7.9 28 11.0 E 2 6 1 3 1016.3 1015.6 0.0
04/06:30pm 30.1 28.2 6.7 23 12.6 ESE 6 9 3 5 1016.4 1015.7 0.0
04/06:00pm 30.8 28.9 6.6 22 13.1 E 6 22 3 12 1016.2 1015.5 0.0
04/05:30pm 31.2 29.4 7.0 22 13.2 S 6 9 3 5 1016.2 1015.5 0.0
04/05:00pm 31.4 30.0 7.1 22 13.3 SW 4 7 2 4 1016.4 1015.7 0.0
04/04:30pm 31.7 30.1 8.0 23 13.2 NNE 6 9 3 5 1016.6 1015.9 0.0
04/04:00pm 30.9 28.4 6.7 22 13.1 NE 9 17 5 9 1016.6 1015.9 0.0
04/03:30pm 31.6 30.4 8.0 23 13.1 ESE 4 15 2 8 1016.6 1015.9 0.0
04/03:00pm 30.8 29.0 7.9 24 12.6 NNW 7 13 4 7 1016.9 1016.2 0.0
04/02:30pm 30.2 28.3 7.4 24 12.5 N 7 13 4 7 1017.1 1016.4 0.0
04/02:00pm 30.4 29.0 8.7 26 12.1 NW 6 11 3 6 1017.5 1016.8 0.0
04/01:30pm 29.8 27.4 8.8 27 11.7 NNE 11 17 6 9 1018.0 1017.3 0.0
04/01:00pm 28.9 26.7 8.0 27 11.4 N 9 19 5 10 1018.3 1017.6 0.0
04/12:30pm 28.8 26.9 9.0 29 11.0 NE 9 20 5 11 1018.9 1018.2 0.0
04/12:00pm 28.9 27.5 9.6 30 10.8 ENE 7 15 4 8 1019.3 1018.6 0.0
04/11:30am 27.6 25.4 9.4 32 10.1 E 11 19 6 10 1019.7 1019.1 0.0
04/11:00am 26.9 25.2 9.7 34 9.6 ENE 9 15 5 8 1020.1 1019.5 0.0
04/10:30am 26.2 25.2 10.4 37 8.9 E 6 15 3 8 1020.7 1020.0 0.0
04/10:00am 24.5 22.8 11.1 43 7.5 NNE 11 17 6 9 1021.1 1020.4 0.0
04/09:30am 23.1 21.6 10.5 45 7.0 NE 9 13 5 7 1021.4 1020.7 0.0
04/09:00am 22.1 20.9 11.5 51 5.9 ENE 9 15 5 8 1021.6 1020.9 0.0
04/08:30am 20.8 20.0 11.7 56 5.1 NE 7 13 4 7 1021.9 1021.2 0.0
04/08:00am 19.2 18.5 11.5 61 4.2 ENE 6 11 3 6 1022.2 1021.5 0.0
04/07:30am 17.3 16.5 11.1 67 3.4 NE 6 15 3 8 1022.2 1021.5 0.0
04/07:00am 16.0 16.4 11.2 73 2.6 CALM 0 0 0 0 1022.2 1021.5 0.0
04/06:30am 14.8 14.8 11.0 78 2.0 S 2 4 1 2 1022.2 1021.5 0.0
04/06:00am 13.5 13.3 10.5 82 1.6 S 2 6 1 3 1022.0 1021.3 0.0
04/05:30am 13.7 13.1 10.3 80 1.8 SE 4 6 2 3 1021.9 1021.2 0.0
04/05:00am 13.7 13.0 10.1 79 1.9 SSE 4 6 2 3 1021.6 1020.9 0.0
04/04:30am 13.9 13.6 10.1 78 2.0 SSE 2 9 1 5 1021.4 1020.7 0.0
04/04:00am 14.2 13.9 10.2 77 2.1 SSE 2 6 1 3 1021.3 1020.6 0.0
04/03:30am 14.5 14.3 10.3 76 2.2 SSE 2 4 1 2 1021.3 1020.6 0.0
04/03:00am 14.9 14.4 10.7 76 2.2 SE 4 7 2 4 1021.2 1020.5 0.0
04/02:30am 15.0 14.5 10.8 76 2.2 SE 4 7 2 4 1021.3 1020.6 0.0
04/02:00am 15.3 14.8 10.9 75 2.3 S 4 6 2 3 1021.4 1020.7 0.0
04/01:30am 15.8 15.4 11.0 73 2.6 S 4 7 2 4 1021.5 1020.8 0.0
04/01:00am 16.1 15.7 11.1 72 2.7 SSE 4 9 2 5 1021.5 1020.8 0.0
04/12:30am 16.7 16.3 11.0 69 3.1 SE 4 11 2 6 1021.6 1020.9 0.0
04/12:00am 17.1 16.6 10.7 66 3.4 ESE 4 6 2 3 1021.7 1021.0 0.0
 
Date/Time
WST
Temp
°C
App
Temp
°C
Dew
Point
Rel
Hum
%
Delta-T
°C
Wind Press
QNH
hPa
Press
MSL
hPa
Rain
since 9 am
mm
Dir
 
Spd
km/h
Gust
km/h
Spd
kts
Gust
kts
03/11:30pm 17.8 16.9 10.7 63 3.8 SE 6 13 3 7 1021.8 1021.1 0.0
03/11:00pm 18.4 16.9 10.5 60 4.3 SE 9 19 5 10 1021.5 1020.8 0.0
03/10:30pm 19.0 17.2 10.8 59 4.5 ESE 11 20 6 11 1021.6 1020.9 0.0
03/10:00pm 19.4 18.1 11.2 59 4.5 SE 9 15 5 8 1021.6 1020.9 0.0
03/09:30pm 19.5 18.2 11.3 59 4.5 SSE 9 11 5 6 1021.6 1020.9 0.0
03/09:00pm 20.3 18.7 11.5 57 4.9 SSE 11 20 6 11 1021.3 1020.6 0.0
03/08:30pm 21.0 19.0 11.6 55 5.3 SSE 13 20 7 11 1020.9 1020.2 0.0
03/08:00pm 21.9 20.3 11.6 52 5.8 SSE 11 22 6 12 1020.5 1019.9 0.0
03/07:30pm 22.8 21.4 12.1 51 6.1 SSE 11 19 6 10 1020.1 1019.5 0.0
03/07:00pm 23.6 21.9 12.3 49 6.5 S 13 20 7 11 1020.0 1019.4 0.0
03/06:30pm 26.5 24.5 7.0 29 10.4 SSE 7 11 4 6 1019.5 1018.8 0.0
03/06:00pm 27.2 25.2 7.1 28 10.7 E 7 13 4 7 1019.2 1018.5 0.0
03/05:30pm 27.4 26.3 6.8 27 11.0 SSW 2 9 1 5 1019.2 1018.5 0.0

Other Formats:

Comma delimited format used in spreadsheet applications
http://www.bom.gov.au/fwo/IDW60801/IDW60801.95632.axf

JavaScript Object Notation format (JSON) in row-major order
http://www.bom.gov.au/fwo/IDW60801/IDW60801.95632.json